createdAt,value
2019-02-12T00:00:48.719Z,7.00
2019-02-12T00:01:48.660Z,6.70
2019-02-12T00:02:48.596Z,6.90
2019-02-12T00:03:48.581Z,6.80
2019-02-12T00:04:48.584Z,6.70
2019-02-12T00:05:48.473Z,6.90
2019-02-12T00:06:48.415Z,6.90
2019-02-12T00:07:48.359Z,7.20
2019-02-12T00:08:48.332Z,7.10
2019-02-12T00:09:48.307Z,6.70
2019-02-12T00:10:48.210Z,7.30
2019-02-12T00:11:48.154Z,7.10
2019-02-12T00:12:48.128Z,6.80
2019-02-12T00:13:48.090Z,7.20
2019-02-12T00:14:48.956Z,7.30
2019-02-12T00:15:48.018Z,6.90
2019-02-12T00:16:47.973Z,6.80
2019-02-12T00:17:47.880Z,7.30
2019-02-12T00:18:47.886Z,7.30
2019-02-12T00:19:47.826Z,7.30
2019-02-12T00:20:47.754Z,7.40
2019-02-12T00:21:47.721Z,6.90
2019-02-12T00:22:47.674Z,7.40
2019-02-12T00:23:47.616Z,7.40
2019-02-12T00:24:47.643Z,7.20
2019-02-12T00:25:47.564Z,6.80
2019-02-12T00:26:47.512Z,7.60
2019-02-12T00:27:47.465Z,7.70
2019-02-12T00:28:47.414Z,6.70
2019-02-12T00:29:47.374Z,7.30
2019-02-12T00:30:47.346Z,7.40
2019-02-12T00:31:47.287Z,7.30
2019-02-12T00:32:47.230Z,6.80
2019-02-12T00:33:47.155Z,7.50
2019-02-12T00:34:48.068Z,7.10
2019-02-12T00:35:47.058Z,7.00
2019-02-12T00:36:47.047Z,7.30
2019-02-12T00:37:47.029Z,7.10
2019-02-12T00:38:46.931Z,7.30
2019-02-12T00:39:46.890Z,7.10
2019-02-12T00:40:46.843Z,7.00
2019-02-12T00:41:46.798Z,7.40
2019-02-12T00:42:46.794Z,7.80
2019-02-12T00:43:46.702Z,6.80
2019-02-12T00:44:46.671Z,7.60
2019-02-12T00:45:46.654Z,7.60
2019-02-12T00:46:46.564Z,7.50
2019-02-12T00:47:46.567Z,7.70
2019-02-12T00:48:46.475Z,7.00
2019-02-12T00:49:46.467Z,7.90
2019-02-12T00:50:46.408Z,8.00
2019-02-12T00:51:46.352Z,8.00
2019-02-12T00:52:46.300Z,7.60
2019-02-12T00:53:46.251Z,7.80
2019-02-12T00:54:46.212Z,7.80
2019-02-12T00:55:46.161Z,7.70
2019-02-12T00:56:46.184Z,8.30
2019-02-12T00:57:46.073Z,8.50
2019-02-12T00:58:46.002Z,8.10
2019-02-12T00:59:45.986Z,7.70
2019-02-12T01:00:45.925Z,8.30
2019-02-12T01:01:45.861Z,8.20
2019-02-12T01:02:45.820Z,8.70
2019-02-12T01:03:45.780Z,8.20
2019-02-12T01:04:45.760Z,8.10
2019-02-12T01:05:45.736Z,8.20
2019-02-12T01:06:45.653Z,8.70
2019-02-12T01:07:45.600Z,7.80
2019-02-12T01:08:45.536Z,8.10
2019-02-12T01:09:45.486Z,8.00
2019-02-12T01:10:45.439Z,8.10
2019-02-12T01:11:45.472Z,8.00
2019-02-12T01:12:45.386Z,8.00
2019-02-12T01:13:45.305Z,7.70
2019-02-12T01:14:45.269Z,8.50
2019-02-12T01:15:45.229Z,8.70
2019-02-12T01:16:45.196Z,8.80
2019-02-12T01:17:45.146Z,8.20
2019-02-12T01:18:45.082Z,8.40
2019-02-12T01:19:45.021Z,8.60
2019-02-12T01:20:45.006Z,8.30
2019-02-12T01:21:44.953Z,7.90
2019-02-12T01:22:44.932Z,8.50
2019-02-12T01:23:44.842Z,8.30
2019-02-12T01:24:44.828Z,8.40
2019-02-12T01:25:44.743Z,9.10
2019-02-12T01:26:44.712Z,8.40
2019-02-12T01:27:44.688Z,9.10
2019-02-12T01:28:44.611Z,8.50
2019-02-12T01:29:44.555Z,8.60
2019-02-12T01:30:44.512Z,8.70
2019-02-12T01:31:44.503Z,9.00
2019-02-12T01:32:44.478Z,9.20
2019-02-12T01:33:44.414Z,9.10
2019-02-12T01:34:44.323Z,9.30
2019-02-12T01:35:44.294Z,9.60
2019-02-12T01:36:44.243Z,9.60
2019-02-12T01:37:44.185Z,9.90
2019-02-12T01:38:44.177Z,10.00
2019-02-12T01:39:44.135Z,10.10
2019-02-12T01:40:45.808Z,10.60
2019-02-12T01:41:44.011Z,10.60
2019-02-12T01:42:43.962Z,10.90
2019-02-12T01:43:43.940Z,10.80
2019-02-12T01:44:43.863Z,11.40
2019-02-12T01:45:43.806Z,11.80
2019-02-12T01:46:43.776Z,11.80
2019-02-12T01:47:43.764Z,12.10
2019-02-12T01:48:43.690Z,11.90
2019-02-12T01:49:43.638Z,11.20
2019-02-12T01:50:43.583Z,10.80
2019-02-12T01:51:43.528Z,10.90
2019-02-12T01:52:43.509Z,11.40
2019-02-12T01:53:43.475Z,11.60
2019-02-12T01:54:43.426Z,11.10
2019-02-12T01:55:43.345Z,11.10
2019-02-12T01:56:43.313Z,11.70
2019-02-12T01:57:43.247Z,11.70
2019-02-12T01:58:43.250Z,11.30
2019-02-12T01:59:43.177Z,12.40
2019-02-12T02:00:43.151Z,12.30
2019-02-12T02:01:43.086Z,12.70
2019-02-12T02:02:43.051Z,12.30
2019-02-12T02:03:42.971Z,11.60
2019-02-12T02:04:42.967Z,11.60
2019-02-12T02:05:42.850Z,11.70
2019-02-12T02:06:42.832Z,12.30
2019-02-12T02:07:42.771Z,12.60
2019-02-12T02:08:42.746Z,11.80
2019-02-12T02:09:42.692Z,12.70
2019-02-12T02:10:42.736Z,11.00
2019-02-12T02:11:42.619Z,11.00
2019-02-12T02:12:43.508Z,11.70
2019-02-12T02:13:42.495Z,11.70
2019-02-12T02:14:42.439Z,12.20
2019-02-12T02:15:42.421Z,10.70
2019-02-12T02:16:42.383Z,11.80
2019-02-12T02:17:42.320Z,10.80
2019-02-12T02:18:42.256Z,11.30
2019-02-12T02:19:42.224Z,12.10
2019-02-12T02:20:42.215Z,11.80
2019-02-12T02:21:44.157Z,10.80
2019-02-12T02:22:42.088Z,11.30
2019-02-12T02:23:42.086Z,12.50
2019-02-12T02:24:41.980Z,12.20
2019-02-12T02:25:41.928Z,13.20
2019-02-12T02:26:41.918Z,11.90
2019-02-12T02:27:41.818Z,12.40
2019-02-12T02:28:41.853Z,11.60
2019-02-12T02:29:41.748Z,11.50
2019-02-12T02:30:41.698Z,11.90
2019-02-12T02:31:41.680Z,12.30
2019-02-12T02:32:41.629Z,12.10
2019-02-12T02:33:41.554Z,12.50
2019-02-12T02:34:41.528Z,12.10
2019-02-12T02:35:41.467Z,11.90
2019-02-12T02:36:41.459Z,12.00
2019-02-12T02:37:41.358Z,12.20
2019-02-12T02:38:41.325Z,12.60
2019-02-12T02:39:41.247Z,11.10
2019-02-12T02:40:41.205Z,12.20
2019-02-12T02:41:41.202Z,11.80
2019-02-12T02:42:41.135Z,11.30
2019-02-12T02:43:41.113Z,11.80
2019-02-12T02:44:41.025Z,11.90
2019-02-12T02:45:40.977Z,11.50
2019-02-12T02:46:40.935Z,11.20
2019-02-12T02:47:40.937Z,10.70
2019-02-12T02:48:40.852Z,11.20
2019-02-12T02:49:40.832Z,11.30
2019-02-12T02:50:40.745Z,11.10
2019-02-12T02:51:40.685Z,11.20
2019-02-12T02:52:40.667Z,11.30
2019-02-12T02:53:40.617Z,11.00
2019-02-12T02:54:40.581Z,10.80
2019-02-12T02:55:40.513Z,10.60
2019-02-12T02:56:40.494Z,10.70
2019-02-12T02:57:40.465Z,10.10
2019-02-12T02:58:40.378Z,10.70
2019-02-12T02:59:40.357Z,10.30
2019-02-12T03:00:40.320Z,11.20
2019-02-12T03:01:40.230Z,10.20
2019-02-12T03:02:40.205Z,10.60
2019-02-12T03:03:40.206Z,10.80
2019-02-12T03:04:40.106Z,10.40
2019-02-12T03:05:40.062Z,9.90
2019-02-12T03:06:40.019Z,10.00
2019-02-12T03:07:39.941Z,10.70
2019-02-12T03:08:39.920Z,9.90
2019-02-12T03:09:39.878Z,11.00
2019-02-12T03:10:39.831Z,10.50
2019-02-12T03:11:39.770Z,10.50
2019-02-12T03:12:39.739Z,10.40
2019-02-12T03:13:39.675Z,10.70
2019-02-12T03:14:39.660Z,10.50
2019-02-12T03:15:39.641Z,9.80
2019-02-12T03:16:39.561Z,11.30
2019-02-12T03:17:39.497Z,10.00
2019-02-12T03:18:39.449Z,10.90
2019-02-12T03:19:39.410Z,11.50
2019-02-12T03:20:39.374Z,11.10
2019-02-12T03:21:39.308Z,11.40
2019-02-12T03:22:39.288Z,10.80
2019-02-12T03:23:39.194Z,11.00
2019-02-12T03:24:39.190Z,11.00
2019-02-12T03:25:39.124Z,10.70
2019-02-12T03:26:39.118Z,10.70
2019-02-12T03:27:39.029Z,10.90
2019-02-12T03:28:39.013Z,10.30
2019-02-12T03:29:38.988Z,10.40
2019-02-12T03:30:38.945Z,10.60
2019-02-12T03:31:38.933Z,10.20
2019-02-12T03:32:38.812Z,10.60
2019-02-12T03:33:38.746Z,10.80
2019-02-12T03:34:38.676Z,9.90
2019-02-12T03:35:38.682Z,10.10
2019-02-12T03:36:38.600Z,9.60
2019-02-12T03:37:39.481Z,11.40
2019-02-12T03:38:38.517Z,9.80
2019-02-12T03:39:38.469Z,10.20
2019-02-12T03:40:38.443Z,10.10
2019-02-12T03:41:38.369Z,10.50
2019-02-12T03:42:38.324Z,10.10
2019-02-12T03:43:38.302Z,10.40
2019-02-12T03:44:38.287Z,10.40
2019-02-12T03:45:38.205Z,10.30
2019-02-12T03:46:38.173Z,10.20
2019-02-12T03:47:38.105Z,10.30
2019-02-12T03:48:38.064Z,10.20
2019-02-12T03:49:37.994Z,10.80
2019-02-12T03:50:37.969Z,10.50
2019-02-12T03:51:37.930Z,10.80
2019-02-12T03:52:37.875Z,10.50
2019-02-12T03:53:37.861Z,10.70
2019-02-12T03:54:37.777Z,11.20
2019-02-12T03:55:37.699Z,10.70
2019-02-12T03:56:37.712Z,11.10
2019-02-12T03:57:37.626Z,11.00
2019-02-12T03:58:46.630Z,11.40
2019-02-12T03:59:46.659Z,11.30
2019-02-12T04:00:45.724Z,11.80
2019-02-12T04:01:46.693Z,12.60
2019-02-12T04:02:47.780Z,12.60
2019-02-12T04:03:47.755Z,12.30
2019-02-12T04:04:47.296Z,13.40
2019-02-12T04:05:47.798Z,12.90
2019-02-12T04:08:16.505Z,14.30
2019-02-12T04:09:26.692Z,14.40
2019-02-12T04:10:25.694Z,14.40
2019-02-12T04:11:26.719Z,14.90
2019-02-12T04:13:55.903Z,16.30
2019-02-12T04:15:03.441Z,15.10
2019-02-12T04:16:05.277Z,15.40
2019-02-12T04:16:55.743Z,15.60
2019-02-12T04:17:55.674Z,16.30
2019-02-12T04:18:55.644Z,17.00
2019-02-12T04:19:55.613Z,17.80
2019-02-12T04:20:55.549Z,18.00
2019-02-12T04:21:55.481Z,17.00
2019-02-12T04:22:55.504Z,17.50
2019-02-12T04:23:55.396Z,18.10
2019-02-12T04:25:04.805Z,18.50
2019-02-12T04:25:55.289Z,18.50
2019-02-12T04:27:05.322Z,19.60
2019-02-12T04:28:03.862Z,19.40
2019-02-12T04:29:04.351Z,19.60
2019-02-12T04:30:05.392Z,18.30
2019-02-12T04:31:04.424Z,18.10
2019-02-12T04:32:05.441Z,19.00
2019-02-12T04:33:04.470Z,20.10
2019-02-12T04:34:03.512Z,19.30
2019-02-12T04:35:05.010Z,19.60
2019-02-12T04:36:03.528Z,18.30
2019-02-12T04:37:03.022Z,21.60
2019-02-12T04:38:03.091Z,20.40
2019-02-12T04:39:03.622Z,19.70
2019-02-12T04:40:04.142Z,20.60
2019-02-12T04:41:04.648Z,21.80
2019-02-12T04:43:33.859Z,21.80
2019-02-12T04:44:33.778Z,23.40
2019-02-12T04:45:33.728Z,24.90
2019-02-12T04:46:33.645Z,24.00
2019-02-12T04:47:33.645Z,23.90
2019-02-12T04:48:33.561Z,25.10
2019-02-12T04:49:33.527Z,24.20
2019-02-12T04:50:33.513Z,24.60
2019-02-12T04:51:33.453Z,24.80
2019-02-12T04:52:33.384Z,27.10
2019-02-12T04:53:33.336Z,28.20
2019-02-12T04:54:33.269Z,28.20
2019-02-12T04:55:33.290Z,26.30
2019-02-12T04:56:33.201Z,25.80
2019-02-12T04:57:33.130Z,26.70
2019-02-12T04:58:33.096Z,27.50
2019-02-12T04:59:33.042Z,29.70
2019-02-12T05:00:33.050Z,28.30
2019-02-12T05:01:32.950Z,27.70
2019-02-12T05:02:32.932Z,28.00
2019-02-12T05:03:32.866Z,26.80
2019-02-12T05:04:32.826Z,29.90
2019-02-12T05:05:32.863Z,29.50
2019-02-12T05:06:32.743Z,34.90
2019-02-12T05:07:32.652Z,34.90
2019-02-12T05:08:32.606Z,34.70
2019-02-12T05:09:32.573Z,35.30
2019-02-12T05:10:32.547Z,38.30
2019-02-12T05:11:32.486Z,37.80
2019-02-12T05:12:32.448Z,39.10
2019-02-12T05:13:32.358Z,37.70
2019-02-12T05:14:32.380Z,42.00
2019-02-12T05:15:32.297Z,42.70
2019-02-12T05:16:32.262Z,43.80
2019-02-12T05:17:32.207Z,46.10
2019-02-12T05:18:32.131Z,44.60
2019-02-12T05:19:32.119Z,45.30
2019-02-12T05:20:32.056Z,45.20
2019-02-12T05:21:32.010Z,45.00
2019-02-12T05:22:42.883Z,42.60
2019-02-12T05:23:31.930Z,47.50
2019-02-12T05:24:31.872Z,46.90
2019-02-12T05:25:31.802Z,45.40
2019-02-12T05:26:31.756Z,46.90
2019-02-12T05:27:31.761Z,45.50
2019-02-12T05:28:31.662Z,45.30
2019-02-12T05:29:31.632Z,49.20
2019-02-12T05:30:31.571Z,47.00
2019-02-12T05:31:31.509Z,48.80
2019-02-12T05:32:31.554Z,44.90
2019-02-12T05:33:31.453Z,46.90
2019-02-12T05:34:31.414Z,48.70
2019-02-12T05:35:31.417Z,48.90
2019-02-12T05:36:31.384Z,48.80
2019-02-12T05:37:31.258Z,46.30
2019-02-12T05:38:31.198Z,45.60
2019-02-12T05:39:31.164Z,41.90
2019-02-12T05:40:31.142Z,43.50
2019-02-12T05:41:31.070Z,43.50
2019-02-12T05:42:31.022Z,40.90
2019-02-12T05:43:31.007Z,42.60
2019-02-12T05:44:30.938Z,38.90
2019-02-12T05:45:30.861Z,37.40
2019-02-12T05:46:30.866Z,37.60
2019-02-12T05:47:30.767Z,35.90
2019-02-12T05:48:30.699Z,34.80
2019-02-12T05:49:30.730Z,36.00
2019-02-12T05:50:30.679Z,37.40
2019-02-12T05:51:30.596Z,34.80
2019-02-12T05:52:30.585Z,34.50
2019-02-12T05:53:30.483Z,34.30
2019-02-12T05:54:30.414Z,32.60
2019-02-12T05:55:30.473Z,33.10
2019-02-12T05:56:30.348Z,31.90
2019-02-12T05:57:30.291Z,33.20
2019-02-12T05:58:30.258Z,31.40
2019-02-12T05:59:30.207Z,33.90
2019-02-12T06:00:30.189Z,32.50
2019-02-12T06:01:30.118Z,30.00
2019-02-12T06:02:30.087Z,31.40
2019-02-12T06:03:30.010Z,30.60
2019-02-12T06:04:29.970Z,30.90
2019-02-12T06:05:29.947Z,31.70
2019-02-12T06:06:29.932Z,32.30
2019-02-12T06:07:29.880Z,33.50
2019-02-12T06:08:29.786Z,31.80
2019-02-12T06:09:29.707Z,30.90
2019-02-12T06:10:29.697Z,29.70
2019-02-12T06:11:29.652Z,30.20
2019-02-12T06:12:29.587Z,30.70
2019-02-12T06:13:29.548Z,31.10
2019-02-12T06:14:29.481Z,30.60
2019-02-12T06:15:29.468Z,31.20
2019-02-12T06:16:29.381Z,33.90
2019-02-12T06:17:29.329Z,34.10
2019-02-12T06:18:29.283Z,35.00
2019-02-12T06:19:29.288Z,35.20
2019-02-12T06:20:29.199Z,36.70
2019-02-12T06:21:29.162Z,35.90
2019-02-12T06:22:29.143Z,38.10
2019-02-12T06:23:29.035Z,35.60
2019-02-12T06:24:29.034Z,35.40
2019-02-12T06:25:28.962Z,35.80
2019-02-12T06:26:28.956Z,34.30
2019-02-12T06:27:28.866Z,35.20
2019-02-12T06:28:28.799Z,39.70
2019-02-12T06:29:28.792Z,38.50
2019-02-12T06:30:28.762Z,37.30
2019-02-12T06:31:28.698Z,38.20
2019-02-12T06:32:28.624Z,39.10
2019-02-12T06:33:28.576Z,39.20
2019-02-12T06:34:28.534Z,37.10
2019-02-12T06:35:28.518Z,37.60
2019-02-12T06:36:28.474Z,38.70
2019-02-12T06:37:28.387Z,36.90
2019-02-12T06:38:28.372Z,37.70
2019-02-12T06:39:28.302Z,34.50
2019-02-12T06:40:28.255Z,36.70
2019-02-12T06:41:28.225Z,36.40
2019-02-12T06:42:28.130Z,38.20
2019-02-12T06:43:28.093Z,39.40
2019-02-12T06:44:28.062Z,42.80
2019-02-12T06:45:28.026Z,41.90
2019-02-12T06:46:29.449Z,33.90
2019-02-12T06:47:27.934Z,36.30
2019-02-12T06:48:27.843Z,29.60
2019-02-12T06:49:27.851Z,25.50
2019-02-12T06:50:27.785Z,21.70
2019-02-12T06:51:27.718Z,17.40
2019-02-12T06:52:28.517Z,17.10
2019-02-12T06:53:27.630Z,15.60
2019-02-12T06:54:27.616Z,17.30
2019-02-12T06:55:27.531Z,15.70
2019-02-12T06:56:27.532Z,13.60
2019-02-12T06:57:27.446Z,13.50
2019-02-12T06:58:27.454Z,13.30
2019-02-12T06:59:27.382Z,13.90
2019-02-12T07:00:27.370Z,14.60
2019-02-12T07:01:27.272Z,13.90
2019-02-12T07:02:27.214Z,13.40
2019-02-12T07:03:27.193Z,12.80
2019-02-12T07:04:27.128Z,14.00
2019-02-12T07:05:27.088Z,14.30
2019-02-12T07:06:27.019Z,16.60
2019-02-12T07:07:27.010Z,14.40
2019-02-12T07:08:26.963Z,13.40
2019-02-12T07:09:26.894Z,13.50
2019-02-12T07:10:26.847Z,13.40
2019-02-12T07:11:26.831Z,12.40
2019-02-12T07:12:26.750Z,13.30
2019-02-12T07:13:26.705Z,12.40
2019-02-12T07:14:26.651Z,13.70
2019-02-12T07:15:26.626Z,14.00
2019-02-12T07:16:26.570Z,15.40
2019-02-12T07:17:26.595Z,14.80
2019-02-12T07:18:26.444Z,15.60
2019-02-12T07:19:26.442Z,15.70
2019-02-12T07:20:26.426Z,14.70
2019-02-12T07:21:26.337Z,17.20
2019-02-12T07:22:26.278Z,15.50
2019-02-12T07:23:26.491Z,13.80
2019-02-12T07:24:26.231Z,14.40
2019-02-12T07:25:26.112Z,15.40
2019-02-12T07:26:26.099Z,14.50
2019-02-12T07:27:26.018Z,13.50
2019-02-12T07:28:25.987Z,13.00
2019-02-12T07:29:26.015Z,13.70
2019-02-12T07:30:25.924Z,13.20
2019-02-12T07:31:25.836Z,13.80
2019-02-12T07:32:25.777Z,13.70
2019-02-12T07:33:25.754Z,14.40
2019-02-12T07:34:25.776Z,13.00
2019-02-12T07:35:25.692Z,13.00
2019-02-12T07:36:25.629Z,13.80
2019-02-12T07:37:25.564Z,12.80
2019-02-12T07:38:25.527Z,12.70
2019-02-12T07:39:25.473Z,13.90
2019-02-12T07:40:25.455Z,14.80
2019-02-12T07:41:25.390Z,14.80
2019-02-12T07:42:26.997Z,15.00
2019-02-12T07:43:25.298Z,13.90
2019-02-12T07:44:25.269Z,15.20
2019-02-12T07:45:25.181Z,14.10
2019-02-12T07:46:25.288Z,14.00
2019-02-12T07:47:25.194Z,12.90
2019-02-12T07:48:25.104Z,14.20
2019-02-12T07:49:25.087Z,14.10
2019-02-12T07:50:25.028Z,14.40
2019-02-12T07:51:24.926Z,15.60
2019-02-12T07:52:24.922Z,16.50
2019-02-12T07:53:30.792Z,16.70
2019-02-12T07:54:24.790Z,18.00
2019-02-12T07:55:24.777Z,17.60
2019-02-12T07:56:24.692Z,19.10
2019-02-12T07:57:24.696Z,18.90
2019-02-12T07:58:24.611Z,19.60
2019-02-12T07:59:24.644Z,19.00
2019-02-12T08:00:24.605Z,20.10
2019-02-12T08:01:24.488Z,18.70
2019-02-12T08:02:24.473Z,19.90
2019-02-12T08:03:24.381Z,19.00
2019-02-12T08:04:24.359Z,17.80
2019-02-12T08:05:24.644Z,17.50
2019-02-12T08:06:24.293Z,16.40
2019-02-12T08:07:24.191Z,15.40
2019-02-12T08:08:24.178Z,14.40
2019-02-12T08:09:24.147Z,14.20
2019-02-12T08:10:24.081Z,14.20
2019-02-12T08:11:24.006Z,13.70
2019-02-12T08:12:23.960Z,14.80
2019-02-12T08:13:23.899Z,14.90
2019-02-12T08:14:23.876Z,14.10
2019-02-12T08:15:23.867Z,13.90
2019-02-12T08:16:23.757Z,14.30
2019-02-12T08:17:23.739Z,14.80
2019-02-12T08:18:23.687Z,14.50
2019-02-12T08:19:23.687Z,14.00
2019-02-12T08:20:23.626Z,14.10
2019-02-12T08:21:23.796Z,15.50
2019-02-12T08:22:23.500Z,16.10
2019-02-12T08:23:23.471Z,17.30
2019-02-12T08:24:23.535Z,17.80
2019-02-12T08:25:23.396Z,17.90
2019-02-12T08:26:23.338Z,18.40
2019-02-12T08:27:23.276Z,18.80
2019-02-12T08:28:23.220Z,19.40
2019-02-12T08:29:23.272Z,19.40
2019-02-12T08:30:23.144Z,20.20
2019-02-12T08:31:23.130Z,21.40
2019-02-12T08:32:23.044Z,20.70
2019-02-12T08:33:22.999Z,20.70
2019-02-12T08:34:22.936Z,19.80
2019-02-12T08:35:22.890Z,21.00
2019-02-12T08:36:22.918Z,21.10
2019-02-12T08:37:22.813Z,20.50
2019-02-12T08:38:22.778Z,19.20
2019-02-12T08:39:22.717Z,20.60
2019-02-12T08:40:22.684Z,20.90
2019-02-12T08:41:22.683Z,20.40
2019-02-12T08:42:22.590Z,20.90
2019-02-12T08:43:22.528Z,20.40
2019-02-12T08:44:22.528Z,20.30
2019-02-12T08:45:22.443Z,20.10
2019-02-12T08:46:22.409Z,19.80
2019-02-12T08:47:22.390Z,19.70
2019-02-12T08:48:22.315Z,19.70
2019-02-12T08:49:22.266Z,19.70
2019-02-12T08:50:22.249Z,20.60
2019-02-12T08:51:22.189Z,20.80
2019-02-12T08:52:22.171Z,20.50
2019-02-12T08:53:22.093Z,20.80
2019-02-12T08:54:22.064Z,21.80
2019-02-12T08:55:22.003Z,21.20
2019-02-12T08:56:21.945Z,20.70
2019-02-12T08:57:21.904Z,20.20
2019-02-12T08:58:21.861Z,19.90
2019-02-12T08:59:21.824Z,19.40
2019-02-12T09:00:21.824Z,19.60
2019-02-12T09:01:21.764Z,20.00
2019-02-12T09:02:21.678Z,20.20
2019-02-12T09:03:21.671Z,20.50
2019-02-12T09:04:21.591Z,19.80
2019-02-12T09:05:21.558Z,22.10
2019-02-12T09:06:21.514Z,20.30
2019-02-12T09:07:21.476Z,20.70
2019-02-12T09:08:21.440Z,19.30
2019-02-12T09:09:21.389Z,18.90
2019-02-12T09:10:21.389Z,19.60
2019-02-12T09:11:21.282Z,19.60
2019-02-12T09:12:21.225Z,19.80
2019-02-12T09:13:21.256Z,20.10
2019-02-12T09:14:21.210Z,20.20
2019-02-12T09:15:21.083Z,20.40
2019-02-12T09:16:21.072Z,21.20
2019-02-12T09:17:21.026Z,20.40
2019-02-12T09:18:20.975Z,21.00
2019-02-12T09:19:20.943Z,20.80
2019-02-12T09:20:20.870Z,21.00
2019-02-12T09:21:20.853Z,21.60
2019-02-12T09:22:20.795Z,20.50
2019-02-12T09:23:20.729Z,21.30
2019-02-12T09:24:20.689Z,20.40
2019-02-12T09:25:20.690Z,21.20
2019-02-12T09:26:20.587Z,21.70
2019-02-12T09:27:20.549Z,20.60
2019-02-12T09:28:20.498Z,19.70
2019-02-12T09:29:20.456Z,21.70
2019-02-12T09:30:20.453Z,20.50
2019-02-12T09:31:20.415Z,21.70
2019-02-12T09:32:20.341Z,20.50
2019-02-12T09:33:20.295Z,21.40
2019-02-12T09:34:20.241Z,21.50
2019-02-12T09:35:20.215Z,21.00
2019-02-12T09:36:20.189Z,21.00
2019-02-12T09:37:20.130Z,21.20
2019-02-12T09:38:20.071Z,20.20
2019-02-12T09:39:20.050Z,21.70
2019-02-12T09:40:19.991Z,20.80
2019-02-12T09:41:19.947Z,21.80
2019-02-12T09:42:19.930Z,22.20
2019-02-12T09:43:19.843Z,20.80
2019-02-12T09:44:19.817Z,21.30
2019-02-12T09:45:19.806Z,21.80
2019-02-12T09:46:19.763Z,21.00
2019-02-12T09:47:19.669Z,21.60
2019-02-12T09:48:19.662Z,21.40
2019-02-12T09:49:19.628Z,21.80
2019-02-12T09:50:19.626Z,22.40
2019-02-12T09:51:19.551Z,21.30
2019-02-12T09:52:19.474Z,21.30
2019-02-12T09:53:19.469Z,22.40
2019-02-12T09:54:19.418Z,21.40
2019-02-12T09:55:19.532Z,21.60
2019-02-12T09:56:19.273Z,21.40
2019-02-12T09:57:19.223Z,21.10
2019-02-12T09:58:19.163Z,21.70
2019-02-12T09:59:19.120Z,22.60
2019-02-12T10:00:19.076Z,22.70
2019-02-12T10:01:19.058Z,21.30
2019-02-12T10:02:19.015Z,21.50
2019-02-12T10:03:18.963Z,20.90
2019-02-12T10:04:18.909Z,21.60
2019-02-12T10:05:18.879Z,22.30
2019-02-12T10:06:22.076Z,21.30
2019-02-12T10:07:18.824Z,21.80
2019-02-12T10:08:18.744Z,20.90
2019-02-12T10:09:18.690Z,21.80
2019-02-12T10:10:18.888Z,21.50
2019-02-12T10:11:18.603Z,21.60
2019-02-12T10:12:18.651Z,22.50
2019-02-12T10:13:18.507Z,22.60
2019-02-12T10:14:18.495Z,22.10
2019-02-12T10:15:18.432Z,22.50
2019-02-12T10:16:18.376Z,22.70
2019-02-12T10:17:18.326Z,23.90
2019-02-12T10:18:18.281Z,23.60
2019-02-12T10:19:18.279Z,24.50
2019-02-12T10:20:18.197Z,23.70
2019-02-12T10:21:18.153Z,23.70
2019-02-12T10:22:18.146Z,24.00
2019-02-12T10:23:18.096Z,24.20
2019-02-12T10:24:19.975Z,24.90
2019-02-12T10:25:18.009Z,25.30
2019-02-12T10:26:17.951Z,24.60
2019-02-12T10:27:17.894Z,24.20
2019-02-12T10:28:17.884Z,24.00
2019-02-12T10:29:17.814Z,24.30
2019-02-12T10:30:17.782Z,24.60
2019-02-12T10:31:17.718Z,24.60
2019-02-12T10:32:17.678Z,24.00
2019-02-12T10:33:17.643Z,23.70
2019-02-12T10:34:17.598Z,24.60
2019-02-12T10:35:17.591Z,23.90
2019-02-12T10:36:17.520Z,24.70
2019-02-12T10:37:17.479Z,24.60
2019-02-12T10:38:17.411Z,24.70
2019-02-12T10:39:17.379Z,25.00
2019-02-12T10:40:17.340Z,23.90
2019-02-12T10:41:17.313Z,24.90
2019-02-12T10:42:17.244Z,25.00
2019-02-12T10:43:17.195Z,24.70
2019-02-12T10:44:17.188Z,25.10
2019-02-12T10:45:17.119Z,25.50
2019-02-12T10:46:17.078Z,25.80
2019-02-12T10:47:17.031Z,25.50
2019-02-12T10:48:18.045Z,24.50
2019-02-12T10:49:16.964Z,26.20
2019-02-12T10:50:16.927Z,26.50
2019-02-12T10:51:16.856Z,27.40
2019-02-12T10:52:16.814Z,26.80
2019-02-12T10:53:16.780Z,28.50
2019-02-12T10:54:16.738Z,27.30
2019-02-12T10:55:16.725Z,27.20
2019-02-12T10:56:16.685Z,27.70
2019-02-12T10:57:16.602Z,28.50
2019-02-12T10:58:16.569Z,27.50
2019-02-12T10:59:16.530Z,27.90
2019-02-12T11:00:16.516Z,27.00
2019-02-12T11:01:16.439Z,26.70
2019-02-12T11:02:16.390Z,27.10
2019-02-12T11:03:16.356Z,26.30
2019-02-12T11:04:16.311Z,26.40
2019-02-12T11:05:16.277Z,25.90
2019-02-12T11:06:16.254Z,25.70
2019-02-12T11:07:16.190Z,24.90
2019-02-12T11:08:16.149Z,24.70
2019-02-12T11:09:16.104Z,25.50
2019-02-12T11:10:16.052Z,23.70
2019-02-12T11:11:16.041Z,23.30
2019-02-12T11:12:15.978Z,24.20
2019-02-12T11:13:15.934Z,23.70
2019-02-12T11:14:15.891Z,23.30
2019-02-12T11:15:15.844Z,23.10
2019-02-12T11:16:15.804Z,23.20
2019-02-12T11:17:15.790Z,22.70
2019-02-12T11:18:15.723Z,22.90
2019-02-12T11:19:15.678Z,22.40
2019-02-12T11:20:15.641Z,22.80
2019-02-12T11:21:15.599Z,22.50
2019-02-12T11:22:15.574Z,21.70
2019-02-12T11:23:15.504Z,21.80
2019-02-12T11:24:15.462Z,22.20
2019-02-12T11:25:15.417Z,21.90
2019-02-12T11:26:15.383Z,21.50
2019-02-12T11:27:15.365Z,21.60
2019-02-12T11:28:15.317Z,21.00
2019-02-12T11:29:15.252Z,21.40
2019-02-12T11:30:15.218Z,21.90
2019-02-12T11:31:15.172Z,22.40
2019-02-12T11:32:15.156Z,21.00
2019-02-12T11:33:15.085Z,22.20
2019-02-12T11:34:15.040Z,21.60
2019-02-12T11:35:14.999Z,22.00
2019-02-12T11:36:14.960Z,21.80
2019-02-12T11:37:14.911Z,22.20
2019-02-12T11:38:14.899Z,21.70
2019-02-12T11:39:14.841Z,21.30
2019-02-12T11:40:14.793Z,20.60
2019-02-12T11:41:14.752Z,21.90
2019-02-12T11:42:14.707Z,21.90
2019-02-12T11:43:14.687Z,22.20
2019-02-12T11:44:14.626Z,22.00
2019-02-12T11:45:14.578Z,20.50
2019-02-12T11:46:14.535Z,21.10
2019-02-12T11:47:14.490Z,20.30
2019-02-12T11:48:14.471Z,20.50
2019-02-12T11:49:14.411Z,21.20
2019-02-12T11:50:14.377Z,19.40
2019-02-12T11:51:14.332Z,20.00
2019-02-12T11:52:14.284Z,20.30
2019-02-12T11:53:14.269Z,20.10
2019-02-12T11:54:14.196Z,20.40
2019-02-12T11:55:14.170Z,20.70
2019-02-12T11:56:14.115Z,20.10
2019-02-12T11:57:15.766Z,20.00
2019-02-12T11:58:14.036Z,19.80
2019-02-12T11:59:14.019Z,19.70
2019-02-12T12:00:13.940Z,19.30
2019-02-12T12:01:13.899Z,18.70
2019-02-12T12:02:13.864Z,19.70
2019-02-12T12:03:13.823Z,19.20
2019-02-12T12:04:13.808Z,18.30
2019-02-12T12:05:13.736Z,19.80
2019-02-12T12:06:13.689Z,19.50
2019-02-12T12:07:13.650Z,18.20
2019-02-12T12:08:13.609Z,18.40
2019-02-12T12:09:13.590Z,19.10
2019-02-12T12:10:13.530Z,18.50
2019-02-12T12:11:13.488Z,17.50
2019-02-12T12:12:13.441Z,18.50
2019-02-12T12:13:13.401Z,18.30
2019-02-12T12:14:13.382Z,18.90
2019-02-12T12:15:13.315Z,17.80
2019-02-12T12:16:13.285Z,18.40
2019-02-12T12:17:13.238Z,18.10
2019-02-12T12:18:13.189Z,18.40
2019-02-12T12:19:13.143Z,18.30
2019-02-12T12:20:13.132Z,17.80
2019-02-12T12:21:13.085Z,17.40
2019-02-12T12:22:13.023Z,18.20
2019-02-12T12:23:12.985Z,17.60
2019-02-12T12:24:12.934Z,17.30
2019-02-12T12:25:12.893Z,17.90
2019-02-12T12:26:12.861Z,18.20
2019-02-12T12:27:12.850Z,16.80
2019-02-12T12:28:12.782Z,17.40
2019-02-12T12:29:12.740Z,16.70
2019-02-12T12:30:12.684Z,16.10
2019-02-12T12:31:12.668Z,17.00
2019-02-12T12:32:12.605Z,16.40
2019-02-12T12:33:12.591Z,15.60
2019-02-12T12:34:12.517Z,15.90
2019-02-12T12:35:12.489Z,17.00
2019-02-12T12:36:12.435Z,16.30
2019-02-12T12:37:12.409Z,17.90
2019-02-12T12:38:12.385Z,16.00
2019-02-12T12:39:12.317Z,16.20
2019-02-12T12:40:12.309Z,15.90
2019-02-12T12:41:12.234Z,16.40
2019-02-12T12:42:12.205Z,16.20
2019-02-12T12:43:12.156Z,16.50
2019-02-12T12:44:12.131Z,15.30
2019-02-12T12:45:12.100Z,14.60
2019-02-12T12:46:12.043Z,14.50
2019-02-12T12:47:13.102Z,15.10
2019-02-12T12:48:11.943Z,15.20
2019-02-12T12:49:11.902Z,15.10
2019-02-12T12:50:11.880Z,15.50
2019-02-12T12:51:11.866Z,15.10
2019-02-12T12:52:11.795Z,14.90
2019-02-12T12:53:11.750Z,15.40
2019-02-12T12:54:11.698Z,14.30
2019-02-12T12:55:11.679Z,14.90
2019-02-12T12:56:11.643Z,15.30
2019-02-12T12:57:11.579Z,15.30
2019-02-12T12:58:11.551Z,14.70
2019-02-12T12:59:11.497Z,14.40
2019-02-12T13:00:11.454Z,14.80
2019-02-12T13:01:11.445Z,14.20